Latest Weather Observations for Rhyll

IDV60801

Issued at 5:12 pm EDT Tuesday 19 January 2021 (issued every 10 minutes, with the page automatically refreshed every 10 minutes)

About weather observations | Map of weather stations | Latest weather observations for VIC | Other Formats
Station Details ID: 086373 Name: RHYLL Lat: -38.46 Lon: 145.31 Height: 13.4 m
Data from the previous 72 hours. | See also: Recent months at Rhyll
Date/Time
EDT
Temp
°C
App
Temp
°C
Dew
Point
°C
Rel
Hum
%
Delta-T
°C
Wind Press
QNH
hPa
Press
MSL
hPa
Rain since
9am
mm
Dir  Spd
km/h
Gust
km/h
Spd
kts
Gust
kts
19/05:00pm 16.8 13.0 6.0 49 5.2 S 15 24 8 13 1023.9 1023.9 0.0
19/04:30pm 17.7 13.4 5.3 44 6.0 S 17 26 9 14 1023.9 1023.9 0.0
19/04:00pm 17.2 13.7 7.0 51 5.1 S 15 28 8 15 1024.1 1024.1 0.0
19/03:30pm 18.2 13.9 5.4 43 6.2 SSW 17 32 9 17 1024.2 1024.2 0.0
19/03:00pm 17.2 12.9 3.5 40 6.3 SSW 15 32 8 17 1024.3 1024.3 0.0
19/02:30pm 18.3 14.6 6.5 46 5.9 S 15 24 8 13 1024.4 1024.4 0.0
19/02:00pm 17.5 14.0 7.0 50 5.2 S 15 26 8 14 1024.4 1024.4 0.0
19/01:30pm 18.2 15.0 8.5 53 5.0 S 15 30 8 16 1024.5 1024.5 0.0
19/01:00pm 18.1 14.5 6.9 48 5.6 S 15 28 8 15 1024.6 1024.6 0.0
19/12:30pm 19.3 15.9 6.1 42 6.5 S 13 32 7 17 1024.7 1024.7 0.0
19/12:00pm 17.9 14.2 4.5 41 6.3 SSW 13 20 7 11 1024.8 1024.8 0.0
19/11:30am 18.4 14.5 5.3 42 6.4 S 15 28 8 15 1024.7 1024.7 0.0
19/11:00am 17.8 13.9 7.2 50 5.3 S 17 30 9 16 1024.4 1024.4 0.0
19/10:30am 15.6 11.8 5.8 52 4.7 S 15 28 8 15 1024.5 1024.5 0.0
19/10:00am 15.9 11.8 4.3 46 5.4 S 15 30 8 16 1024.1 1024.1 0.0
19/09:30am 15.5 10.5 4.6 48 5.1 S 20 32 11 17 1023.9 1023.9 0.0
19/09:00am 15.5 11.0 7.0 57 4.2 S 20 37 11 20 1023.5 1023.5 0.6
19/08:30am 14.7 10.2 6.8 59 3.8 SSW 20 35 11 19 1023.0 1023.0 0.6
19/08:00am 14.6 11.4 6.7 59 3.8 SSW 13 22 7 12 1022.6 1022.6 0.6
19/07:30am 13.9 10.9 5.8 58 3.8 S 11 20 6 11 1022.4 1022.4 0.6
19/07:00am 13.9 9.6 5.3 56 4.0 S 17 26 9 14 1022.1 1022.1 0.6
19/06:30am 14.0 10.2 5.9 58 3.8 SSW 15 26 8 14 1021.5 1021.5 0.6
19/06:00am 13.9 9.1 5.5 57 3.9 S 20 33 11 18 1021.0 1021.0 0.6
19/05:30am 13.8 8.9 4.9 55 4.1 SSW 20 32 11 17 1020.8 1020.8 0.6
19/05:00am 14.4 9.8 6.7 60 3.7 SSW 20 35 11 19 1020.2 1020.2 0.6
19/04:30am 14.3 10.4 7.1 62 3.5 SW 17 28 9 15 1020.0 1020.0 0.6
19/04:00am 14.5 10.9 8.5 67 3.0 SSW 17 32 9 17 1019.8 1019.8 0.6
19/03:30am 14.8 10.9 7.1 60 3.8 SSW 17 30 9 16 1019.5 1019.5 0.6
19/03:00am 14.7 11.7 7.7 63 3.5 SW 13 22 7 12 1019.5 1019.5 0.6
19/02:30am 14.7 10.6 6.3 57 4.0 SW 17 28 9 15 1019.4 1019.4 0.6
19/02:00am 15.0 12.0 7.8 62 3.6 SW 13 20 7 11 1019.2 1019.2 0.6
19/01:30am 15.2 11.2 8.2 63 3.5 SW 19 28 10 15 1019.1 1019.1 0.6
19/01:00am 15.2 12.7 8.0 62 3.6 WSW 11 15 6 8 1019.0 1019.0 0.6
19/12:30am 15.3 10.9 7.6 60 3.8 SW 20 32 11 17 1019.1 1019.1 0.6
19/12:00am 15.7 12.9 10.0 69 3.0 SW 15 24 8 13 1018.7 1018.7 0.6
 
Date/Time
EDT
Temp
°C
App
Temp
°C
Dew
Point
°C
Rel
Hum
%
Delta-T
°C
Wind Press
QNH
hPa
Press
MSL
hPa
Rain since
9am
mm
Dir  Spd
km/h
Gust
km/h
Spd
kts
Gust
kts
18/11:30pm 15.7 12.7 9.4 66 3.3 SW 15 26 8 14 1018.5 1018.5 0.6
18/11:00pm 15.7 12.5 9.8 68 3.1 SW 17 28 9 15 1018.4 1018.4 0.6
18/10:30pm 15.4 13.6 12.0 80 1.8 WSW 13 24 7 13 1018.5 1018.5 0.6
18/10:00pm 15.2 14.2 12.2 82 1.6 WSW 9 17 5 9 1018.3 1018.3 0.6
18/09:30pm 14.7 13.3 12.2 85 1.4 WSW 11 19 6 10 1018.1 1018.1 0.2
18/09:00pm 14.9 13.9 12.4 85 1.4 WSW 9 17 5 9 1017.9 1017.8 0.2
18/08:30pm 14.6 11.9 11.7 83 1.6 WSW 17 35 9 19 1017.7 1017.6 0.2
18/08:00pm 15.4 12.7 11.8 79 1.9 WSW 17 37 9 20 1017.2 1017.1 0.2
18/07:30pm 14.7 11.8 12.4 86 1.3 WSW 19 32 10 17 1017.0 1016.9 0.2
18/07:00pm 15.9 13.8 12.3 79 2.0 WSW 15 28 8 15 1016.7 1016.6 0.2
18/06:30pm 16.4 13.5 10.9 70 2.9 WSW 17 37 9 20 1016.4 1016.3 0.0
18/06:00pm 16.6 12.7 10.9 69 3.0 WSW 22 39 12 21 1016.3 1016.2 0.0
18/05:30pm 17.5 14.3 11.1 66 3.5 WSW 19 39 10 21 1016.3 1016.2 0.0
18/05:00pm 17.4 13.0 10.5 64 3.7 WSW 24 39 13 21 1016.4 1016.3 0.0
18/04:30pm 18.3 13.2 10.7 61 4.1 SW 28 50 15 27 1016.1 1016.0 0.0
18/04:00pm 17.5 12.0 10.6 64 3.7 WSW 30 50 16 27 1016.4 1016.3 0.0
18/03:59pm 17.5 12.0 10.6 64 3.7 WSW 30 50 16 27 1016.4 1016.3 0.0
18/03:30pm 17.4 12.9 11.4 68 3.3 WSW 26 44 14 24 1016.5 1016.4 0.0
18/03:00pm 17.7 13.5 11.0 65 3.6 WSW 24 41 13 22 1016.6 1016.5 0.0
18/02:30pm 18.3 15.4 11.1 63 3.9 WSW 17 32 9 17 1016.4 1016.3 0.0
18/02:00pm 18.2 14.1 11.3 64 3.8 WSW 24 39 13 21 1016.4 1016.3 0.0
18/01:30pm 18.8 15.4 11.1 61 4.2 WSW 20 35 11 19 1016.4 1016.3 0.0
18/01:00pm 18.9 15.4 11.0 60 4.3 W 20 35 11 19 1016.4 1016.3 0.0
18/12:30pm 17.6 14.9 10.5 63 3.8 W 15 33 8 18 1016.8 1016.7 0.0
18/12:00pm 17.3 14.0 10.9 66 3.4 W 19 32 10 17 1016.8 1016.7 0.0
18/11:30am 16.9 13.7 11.2 69 3.1 W 19 33 10 18 1017.0 1016.9 0.0
18/11:00am 17.0 14.9 12.3 74 2.6 W 15 32 8 17 1016.9 1016.8 0.0
18/10:30am 15.9 13.0 10.9 72 2.7 W 17 33 9 18 1017.1 1017.0 0.0
18/10:00am 15.4 14.3 13.1 86 1.3 W 11 20 6 11 1017.1 1017.0 0.0
18/09:30am 14.8 13.1 12.5 86 1.3 W 13 22 7 12 1017.4 1017.3 0.0
18/09:00am 14.4 12.4 12.6 89 1.0 W 15 28 8 15 1017.3 1017.2 1.4
18/08:30am 14.6 13.3 12.6 88 1.1 W 11 20 6 11 1017.0 1016.9 1.4
18/08:00am 14.4 13.5 12.6 89 1.0 W 9 17 5 9 1016.9 1016.8 1.4
18/07:30am 14.3 14.0 12.7 90 0.9 WNW 6 11 3 6 1016.4 1016.3 1.2
18/07:00am 14.1 12.0 12.3 89 1.0 W 15 26 8 14 1016.5 1016.4 1.2
18/06:30am 14.3 13.8 12.5 89 1.0 WNW 7 15 4 8 1016.3 1016.2 1.0
18/06:00am 14.1 13.0 12.0 87 1.1 WSW 9 19 5 10 1016.5 1016.4 1.0
18/05:30am 14.5 13.9 12.2 86 1.2 WNW 7 19 4 10 1016.0 1015.9 0.2
18/05:00am 14.2 13.4 11.7 85 1.3 W 7 17 4 9 1016.1 1016.0 0.2
18/04:30am 14.4 13.1 11.2 81 1.7 W 9 19 5 10 1016.1 1016.0 0.0
18/04:00am 14.8 13.4 11.0 78 2.0 WNW 9 17 5 9 1015.9 1015.8 0.0
18/03:30am 14.7 12.9 10.9 78 2.0 W 11 19 6 10 1016.1 1016.0 0.0
18/03:00am 14.5 13.7 11.7 83 1.5 WNW 7 19 4 10 1016.4 1016.3 0.0
18/02:30am 14.4 13.2 11.6 83 1.5 W 9 15 5 8 1016.7 1016.6 0.0
18/02:00am 14.7 13.5 11.7 82 1.6 W 9 17 5 9 1017.0 1016.9 0.0
18/01:30am 14.9 13.1 10.9 77 2.1 W 11 19 6 10 1017.2 1017.1 0.0
18/01:00am 14.9 12.8 11.1 78 2.0 W 13 26 7 14 1017.3 1017.2 0.0
18/12:30am 14.9 12.7 10.9 77 2.1 W 13 22 7 12 1017.4 1017.3 0.0
18/12:00am 15.3 12.6 10.3 72 2.6 WSW 15 24 8 13 1017.6 1017.5 0.0
 
Date/Time
EDT
Temp
°C
App
Temp
°C
Dew
Point
°C
Rel
Hum
%
Delta-T
°C
Wind Press
QNH
hPa
Press
MSL
hPa
Rain since
9am
mm
Dir  Spd
km/h
Gust
km/h
Spd
kts
Gust
kts
17/11:30pm 15.2 12.8 10.2 72 2.6 WSW 13 28 7 15 1017.9 1017.8 0.0
17/11:00pm 14.9 11.7 9.9 72 2.6 WSW 17 32 9 17 1017.9 1017.8 0.0
17/10:30pm 14.7 12.1 9.5 71 2.7 WSW 13 22 7 12 1018.0 1017.9 0.0
17/10:00pm 14.8 11.9 9.6 71 2.7 WSW 15 30 8 16 1018.0 1017.9 0.0
17/09:30pm 14.8 12.6 9.2 69 2.9 WSW 11 19 6 10 1018.0 1017.9 0.0
17/09:00pm 14.9 11.7 8.6 66 3.2 WSW 15 30 8 16 1017.9 1017.8 0.0
17/08:30pm 15.3 12.6 9.0 66 3.2 SW 13 20 7 11 1017.9 1017.8 0.0
17/08:00pm 15.9 12.5 9.1 64 3.5 SW 17 32 9 17 1017.6 1017.5 0.0
17/07:30pm 16.2 12.4 8.9 62 3.7 WSW 19 28 10 15 1017.3 1017.2 0.0
17/07:00pm 16.7 13.5 8.4 58 4.2 SW 15 30 8 16 1017.3 1017.2 0.0
17/06:30pm 17.1 13.6 8.8 58 4.3 SW 17 28 9 15 1017.2 1017.1 0.0
17/06:00pm 17.1 13.0 8.8 58 4.3 SW 20 32 11 17 1017.3 1017.2 0.0
17/05:30pm 17.8 14.0 7.5 51 5.2 SW 17 26 9 14 1017.4 1017.3 0.0
17/05:00pm 17.4 13.3 8.0 54 4.8 SW 19 32 10 17 1017.6 1017.5 0.0
17/04:30pm 18.3 15.0 8.0 51 5.3 WSW 15 28 8 15 1017.7 1017.6 0.0
17/04:00pm 18.4 14.7 8.1 51 5.3 SW 17 32 9 17 1017.8 1017.7 0.0
17/03:30pm 18.0 13.5 6.2 46 5.8 SW 19 35 10 19 1018.1 1018.1 0.0
17/03:00pm 18.1 14.1 6.6 47 5.7 SW 17 28 9 15 1018.0 1017.9 0.0
17/02:30pm 18.2 14.1 6.1 45 6.0 WSW 17 24 9 13 1018.3 1018.3 0.0
17/02:00pm 17.6 13.7 7.1 50 5.2 WSW 17 32 9 17 1018.7 1018.7 0.0
17/01:30pm 17.4 13.3 6.0 47 5.6 WSW 17 32 9 17 1018.6 1018.6 0.0
17/01:00pm 16.9 12.2 5.2 46 5.6 WSW 19 30 10 16 1018.7 1018.7 0.0
17/12:30pm 17.7 13.3 5.0 43 6.1 WSW 17 30 9 16 1018.7 1018.7 0.0
17/12:00pm 17.8 14.3 7.0 49 5.4 WSW 15 30 8 16 1018.6 1018.6 0.0
17/11:30am 17.0 12.8 5.6 47 5.5 WSW 17 33 9 18 1018.5 1018.5 0.0
17/11:00am 16.6 12.4 7.5 55 4.5 SW 19 28 10 15 1018.3 1018.3 0.0
17/10:30am 16.2 12.4 7.4 56 4.4 SW 17 28 9 15 1018.1 1018.1 0.0
17/10:00am 16.6 13.6 7.5 55 4.5 WSW 13 26 7 14 1018.3 1018.3 0.0
17/09:30am 16.6 13.1 5.6 48 5.3 WSW 13 24 7 13 1018.2 1018.2 0.0
17/09:00am 15.0 11.5 5.5 53 4.5 SW 13 22 7 12 1018.3 1018.3 1.0
17/08:30am 15.3 11.7 5.2 51 4.8 SW 13 20 7 11 1017.9 1017.8 1.0
17/08:00am 15.3 11.5 4.1 47 5.2 WSW 13 24 7 13 1017.4 1017.3 1.0
17/07:30am 14.5 11.0 5.3 54 4.3 SW 13 22 7 12 1017.0 1016.9 1.0
17/07:00am 14.4 11.3 5.7 56 4.1 SW 11 20 6 11 1016.8 1016.7 1.0
17/06:30am 14.3 10.8 5.4 55 4.2 SW 13 19 7 10 1016.6 1016.5 1.0
17/06:00am 13.6 11.7 7.4 66 3.0 W 7 13 4 7 1016.3 1016.2 1.0
17/05:30am 13.9 11.5 7.2 64 3.3 W 9 15 5 8 1016.1 1016.0 1.0
17/05:00am 14.3 11.8 6.4 59 3.8 WSW 9 15 5 8 1015.9 1015.8 1.0
17/04:30am 14.4 11.4 6.0 57 4.0 SW 11 20 6 11 1015.8 1015.7 1.0
17/04:00am 14.0 11.1 4.6 53 4.3 WSW 9 20 5 11 1015.6 1015.5 1.0
17/03:30am 14.2 10.8 5.8 57 4.0 SW 13 22 7 12 1015.6 1015.5 1.0
17/03:00am 14.6 11.6 6.2 57 4.0 WSW 11 20 6 11 1015.6 1015.5 1.0
17/02:30am 14.5 11.0 5.3 54 4.3 SW 13 20 7 11 1015.7 1015.6 1.0
17/02:00am 14.3 10.1 5.9 57 4.0 SW 17 30 9 16 1015.8 1015.7 1.0
17/01:30am 13.5 10.9 7.9 69 2.8 WSW 11 20 6 11 1015.7 1015.6 1.0
17/01:00am 14.6 11.9 7.2 61 3.6 SW 11 20 6 11 1015.5 1015.4 1.0
17/12:30am 14.5 11.5 7.5 63 3.5 SW 13 26 7 14 1015.4 1015.3 1.0
17/12:00am 14.9 11.7 6.7 58 4.0 WSW 13 24 7 13 1015.2 1015.1 1.0
 
Date/Time
EDT
Temp
°C
App
Temp
°C
Dew
Point
°C
Rel
Hum
%
Delta-T
°C
Wind Press
QNH
hPa
Press
MSL
hPa
Rain since
9am
mm
Dir  Spd
km/h
Gust
km/h
Spd
kts
Gust
kts
16/11:30pm 14.5 11.0 5.3 54 4.3 WSW 13 24 7 13 1015.2 1015.1 1.0
16/11:00pm 14.7 10.3 6.5 58 4.0 WSW 19 30 10 16 1015.2 1015.1 1.0
16/10:30pm 15.0 10.2 5.8 54 4.4 SW 20 39 11 21 1015.1 1015.0 1.0
16/10:00pm 15.3 11.1 7.6 60 3.8 WSW 19 33 10 18 1015.0 1014.9 1.0
16/09:30pm 15.3 12.4 8.3 63 3.5 WSW 13 22 7 12 1014.8 1014.7 1.0
16/09:00pm 15.4 11.8 8.2 62 3.6 WSW 17 32 9 17 1014.7 1014.6 1.0
16/08:30pm 15.6 12.1 8.8 64 3.5 WSW 17 28 9 15 1014.4 1014.3 1.0
16/08:00pm 15.9 12.1 8.9 63 3.6 WSW 19 32 10 17 1014.0 1013.9 1.0
16/07:30pm 16.6 12.1 8.6 59 4.1 WSW 22 41 12 22 1013.6 1013.5 1.0
16/07:00pm 16.4 12.4 9.1 62 3.8 WSW 20 41 11 22 1013.2 1013.1 1.0
16/06:30pm 16.9 13.4 10.1 64 3.6 WSW 19 39 10 21 1012.7 1012.6 1.0
16/06:00pm 16.4 12.8 10.7 69 3.0 WSW 20 35 11 19 1012.8 1012.7 1.0
16/05:30pm 15.8 12.8 12.0 78 2.1 W 19 33 10 18 1012.8 1012.7 1.0

Other formats

Comma delimited format used in spreadsheet applications
http://www.bom.gov.au/fwo/IDV60801/IDV60801.94892.axf

JavaScript Object Notation format (JSON) in row-major order
http://www.bom.gov.au/fwo/IDV60801/IDV60801.94892.json

Data quality

Most of these data are generated automatically and are frequently updated. Quality checks on data are not normally performed. It is possible for incorrect values to appear. Refer to information at About Latest Weather Observations and please check the disclaimer before using these data.